sensor_id;sensor_type;location;lat;lon;timestamp;P1;durP1;ratioP1;P2;durP2;ratioP2
11344;SDS011;5727;42.600;23.028;2023-07-31T00:01:05;10.87;;;4.50;;
11344;SDS011;5727;42.600;23.028;2023-07-31T00:03:32;6.57;;;4.37;;
11344;SDS011;5727;42.600;23.028;2023-07-31T00:05:58;7.07;;;4.23;;
11344;SDS011;5727;42.600;23.028;2023-07-31T00:08:25;7.67;;;4.20;;
11344;SDS011;5727;42.600;23.028;2023-07-31T00:10:52;5.67;;;4.43;;
11344;SDS011;5727;42.600;23.028;2023-07-31T00:13:19;8.57;;;5.23;;
11344;SDS011;5727;42.600;23.028;2023-07-31T00:15:45;6.83;;;4.33;;
11344;SDS011;5727;42.600;23.028;2023-07-31T00:18:14;10.33;;;5.40;;
11344;SDS011;5727;42.600;23.028;2023-07-31T00:20:41;8.57;;;5.30;;
11344;SDS011;5727;42.600;23.028;2023-07-31T00:23:08;10.00;;;5.47;;
11344;SDS011;5727;42.600;23.028;2023-07-31T00:25:35;8.37;;;5.43;;
11344;SDS011;5727;42.600;23.028;2023-07-31T00:28:01;9.97;;;5.53;;
11344;SDS011;5727;42.600;23.028;2023-07-31T00:30:28;8.60;;;5.40;;
11344;SDS011;5727;42.600;23.028;2023-07-31T00:32:55;7.00;;;5.37;;
11344;SDS011;5727;42.600;23.028;2023-07-31T00:35:23;9.33;;;5.53;;
11344;SDS011;5727;42.600;23.028;2023-07-31T00:37:50;9.47;;;5.80;;
11344;SDS011;5727;42.600;23.028;2023-07-31T00:40:16;9.60;;;5.80;;
11344;SDS011;5727;42.600;23.028;2023-07-31T00:42:43;11.37;;;5.70;;
11344;SDS011;5727;42.600;23.028;2023-07-31T00:45:10;9.43;;;5.93;;
11344;SDS011;5727;42.600;23.028;2023-07-31T00:47:37;9.93;;;6.07;;
11344;SDS011;5727;42.600;23.028;2023-07-31T00:50:04;8.70;;;5.40;;
11344;SDS011;5727;42.600;23.028;2023-07-31T00:52:33;8.73;;;5.83;;
11344;SDS011;5727;42.600;23.028;2023-07-31T00:55:01;14.30;;;7.13;;
11344;SDS011;5727;42.600;23.028;2023-07-31T00:57:28;9.33;;;6.50;;
11344;SDS011;5727;42.600;23.028;2023-07-31T00:59:55;11.50;;;7.27;;
11344;SDS011;5727;42.600;23.028;2023-07-31T01:02:22;11.37;;;6.83;;
11344;SDS011;5727;42.600;23.028;2023-07-31T01:04:48;12.10;;;6.53;;
11344;SDS011;5727;42.600;23.028;2023-07-31T01:07:18;12.37;;;6.80;;
11344;SDS011;5727;42.600;23.028;2023-07-31T01:09:56;14.23;;;7.20;;
11344;SDS011;5727;42.600;23.028;2023-07-31T01:12:30;17.53;;;7.40;;
11344;SDS011;5727;42.600;23.028;2023-07-31T01:15:04;11.73;;;6.97;;
11344;SDS011;5727;42.600;23.028;2023-07-31T01:17:32;13.33;;;7.50;;
11344;SDS011;5727;42.600;23.028;2023-07-31T01:19:59;16.77;;;7.50;;
11344;SDS011;5727;42.600;23.028;2023-07-31T01:22:41;16.03;;;7.93;;
11344;SDS011;5727;42.600;23.028;2023-07-31T01:25:35;9.50;;;8.10;;
11344;SDS011;5727;42.600;23.028;2023-07-31T01:28:16;12.30;;;8.93;;
11344;SDS011;5727;42.600;23.028;2023-07-31T01:30:47;13.53;;;9.83;;
11344;SDS011;5727;42.600;23.028;2023-07-31T01:33:15;10.50;;;9.07;;
11344;SDS011;5727;42.600;23.028;2023-07-31T01:35:43;11.47;;;9.20;;
11344;SDS011;5727;42.600;23.028;2023-07-31T01:38:11;10.60;;;9.50;;
11344;SDS011;5727;42.600;23.028;2023-07-31T01:40:40;10.13;;;8.73;;
11344;SDS011;5727;42.600;23.028;2023-07-31T01:43:09;11.73;;;9.17;;
11344;SDS011;5727;42.600;23.028;2023-07-31T01:45:36;10.90;;;9.83;;
11344;SDS011;5727;42.600;23.028;2023-07-31T01:48:03;11.73;;;10.57;;
11344;SDS011;5727;42.600;23.028;2023-07-31T01:50:29;12.87;;;11.17;;
11344;SDS011;5727;42.600;23.028;2023-07-31T01:52:56;12.83;;;11.50;;
11344;SDS011;5727;42.600;23.028;2023-07-31T01:55:23;13.50;;;12.00;;
11344;SDS011;5727;42.600;23.028;2023-07-31T01:57:50;14.40;;;11.53;;
11344;SDS011;5727;42.600;23.028;2023-07-31T02:00:19;14.40;;;11.37;;
11344;SDS011;5727;42.600;23.028;2023-07-31T02:02:45;12.50;;;11.20;;
11344;SDS011;5727;42.600;23.028;2023-07-31T02:05:12;11.93;;;10.53;;
11344;SDS011;5727;42.600;23.028;2023-07-31T02:07:39;13.90;;;10.70;;
11344;SDS011;5727;42.600;23.028;2023-07-31T02:10:06;13.03;;;11.67;;
11344;SDS011;5727;42.600;23.028;2023-07-31T02:12:33;11.70;;;10.50;;
11344;SDS011;5727;42.600;23.028;2023-07-31T02:14:59;14.80;;;11.80;;
11344;SDS011;5727;42.600;23.028;2023-07-31T02:17:28;13.00;;;11.57;;
11344;SDS011;5727;42.600;23.028;2023-07-31T02:19:54;15.10;;;11.80;;
11344;SDS011;5727;42.600;23.028;2023-07-31T02:22:21;13.23;;;10.57;;
11344;SDS011;5727;42.600;23.028;2023-07-31T02:24:48;13.37;;;11.50;;
11344;SDS011;5727;42.600;23.028;2023-07-31T02:27:15;14.27;;;12.00;;
11344;SDS011;5727;42.600;23.028;2023-07-31T02:29:41;12.10;;;10.43;;
11344;SDS011;5727;42.600;23.028;2023-07-31T02:32:08;13.53;;;11.97;;
11344;SDS011;5727;42.600;23.028;2023-07-31T02:34:36;12.57;;;11.23;;
11344;SDS011;5727;42.600;23.028;2023-07-31T02:37:03;13.03;;;11.60;;
11344;SDS011;5727;42.600;23.028;2023-07-31T02:39:30;12.13;;;10.90;;
11344;SDS011;5727;42.600;23.028;2023-07-31T02:41:57;12.17;;;10.37;;
11344;SDS011;5727;42.600;23.028;2023-07-31T02:44:24;10.53;;;9.43;;
11344;SDS011;5727;42.600;23.028;2023-07-31T02:46:50;12.67;;;10.70;;
11344;SDS011;5727;42.600;23.028;2023-07-31T02:49:17;12.73;;;10.27;;
11344;SDS011;5727;42.600;23.028;2023-07-31T02:51:45;12.30;;;10.43;;
11344;SDS011;5727;42.600;23.028;2023-07-31T02:54:12;10.67;;;9.67;;
11344;SDS011;5727;42.600;23.028;2023-07-31T02:56:38;11.93;;;10.73;;
11344;SDS011;5727;42.600;23.028;2023-07-31T02:59:05;12.33;;;11.13;;
11344;SDS011;5727;42.600;23.028;2023-07-31T03:01:32;11.87;;;10.63;;
11344;SDS011;5727;42.600;23.028;2023-07-31T03:03:58;12.23;;;10.77;;
11344;SDS011;5727;42.600;23.028;2023-07-31T03:06:25;11.93;;;10.73;;
11344;SDS011;5727;42.600;23.028;2023-07-31T03:08:54;12.10;;;10.67;;
11344;SDS011;5727;42.600;23.028;2023-07-31T03:11:21;12.53;;;11.23;;
11344;SDS011;5727;42.600;23.028;2023-07-31T03:13:47;14.93;;;12.27;;
11344;SDS011;5727;42.600;23.028;2023-07-31T03:16:14;14.00;;;12.57;;
11344;SDS011;5727;42.600;23.028;2023-07-31T03:18:41;13.20;;;11.90;;
11344;SDS011;5727;42.600;23.028;2023-07-31T03:21:08;14.77;;;12.80;;
11344;SDS011;5727;42.600;23.028;2023-07-31T03:23:34;15.33;;;13.67;;
11344;SDS011;5727;42.600;23.028;2023-07-31T03:26:06;16.20;;;12.73;;
11344;SDS011;5727;42.600;23.028;2023-07-31T03:28:33;15.43;;;13.80;;
11344;SDS011;5727;42.600;23.028;2023-07-31T03:31:00;16.30;;;13.73;;
11344;SDS011;5727;42.600;23.028;2023-07-31T03:33:27;14.33;;;12.67;;
11344;SDS011;5727;42.600;23.028;2023-07-31T03:35:54;15.13;;;13.53;;
11344;SDS011;5727;42.600;23.028;2023-07-31T03:38:20;14.47;;;13.00;;
11344;SDS011;5727;42.600;23.028;2023-07-31T03:40:47;14.90;;;13.20;;
11344;SDS011;5727;42.600;23.028;2023-07-31T03:43:15;16.73;;;13.97;;
11344;SDS011;5727;42.600;23.028;2023-07-31T03:45:42;15.83;;;14.13;;
11344;SDS011;5727;42.600;23.028;2023-07-31T03:48:09;16.00;;;14.30;;
11344;SDS011;5727;42.600;23.028;2023-07-31T03:50:36;15.00;;;13.50;;
11344;SDS011;5727;42.600;23.028;2023-07-31T03:53:03;15.63;;;14.03;;
11344;SDS011;5727;42.600;23.028;2023-07-31T03:55:29;19.73;;;14.57;;
11344;SDS011;5727;42.600;23.028;2023-07-31T03:57:56;15.80;;;13.77;;
11344;SDS011;5727;42.600;23.028;2023-07-31T04:00:26;15.70;;;13.80;;
11344;SDS011;5727;42.600;23.028;2023-07-31T04:02:53;15.83;;;14.07;;
11344;SDS011;5727;42.600;23.028;2023-07-31T04:05:20;18.03;;;14.93;;
11344;SDS011;5727;42.600;23.028;2023-07-31T04:07:46;16.23;;;14.50;;
11344;SDS011;5727;42.600;23.028;2023-07-31T04:10:13;15.47;;;13.97;;
11344;SDS011;5727;42.600;23.028;2023-07-31T04:12:40;18.60;;;14.63;;
11344;SDS011;5727;42.600;23.028;2023-07-31T04:15:07;17.07;;;15.23;;
11344;SDS011;5727;42.600;23.028;2023-07-31T04:17:36;17.13;;;14.37;;
11344;SDS011;5727;42.600;23.028;2023-07-31T04:20:03;17.83;;;15.10;;
11344;SDS011;5727;42.600;23.028;2023-07-31T04:22:30;16.13;;;14.53;;
11344;SDS011;5727;42.600;23.028;2023-07-31T04:24:56;15.63;;;13.73;;
11344;SDS011;5727;42.600;23.028;2023-07-31T04:27:23;18.57;;;15.93;;
11344;SDS011;5727;42.600;23.028;2023-07-31T04:29:50;17.03;;;15.23;;
11344;SDS011;5727;42.600;23.028;2023-07-31T04:32:17;17.20;;;15.40;;
11344;SDS011;5727;42.600;23.028;2023-07-31T04:34:46;19.30;;;17.03;;
11344;SDS011;5727;42.600;23.028;2023-07-31T04:37:13;17.57;;;15.67;;
11344;SDS011;5727;42.600;23.028;2023-07-31T04:39:40;18.57;;;16.63;;
11344;SDS011;5727;42.600;23.028;2023-07-31T04:42:06;17.83;;;15.93;;
11344;SDS011;5727;42.600;23.028;2023-07-31T04:44:33;19.47;;;16.97;;
11344;SDS011;5727;42.600;23.028;2023-07-31T04:47:00;19.97;;;17.73;;
11344;SDS011;5727;42.600;23.028;2023-07-31T04:49:27;21.43;;;18.70;;
11344;SDS011;5727;42.600;23.028;2023-07-31T04:51:55;19.70;;;17.13;;
11344;SDS011;5727;42.600;23.028;2023-07-31T04:54:22;19.93;;;15.67;;
11344;SDS011;5727;42.600;23.028;2023-07-31T04:56:48;20.10;;;16.90;;
11344;SDS011;5727;42.600;23.028;2023-07-31T04:59:15;18.23;;;16.10;;
11344;SDS011;5727;42.600;23.028;2023-07-31T05:01:42;20.43;;;17.93;;
11344;SDS011;5727;42.600;23.028;2023-07-31T05:04:12;20.47;;;17.33;;
11344;SDS011;5727;42.600;23.028;2023-07-31T05:06:39;20.10;;;17.33;;
11344;SDS011;5727;42.600;23.028;2023-07-31T05:09:07;20.50;;;17.37;;
11344;SDS011;5727;42.600;23.028;2023-07-31T05:11:34;19.13;;;15.87;;
11344;SDS011;5727;42.600;23.028;2023-07-31T05:14:01;18.13;;;15.90;;
11344;SDS011;5727;42.600;23.028;2023-07-31T05:16:28;18.63;;;16.63;;
11344;SDS011;5727;42.600;23.028;2023-07-31T05:18:54;18.50;;;16.60;;
11344;SDS011;5727;42.600;23.028;2023-07-31T05:21:21;19.43;;;16.50;;
11344;SDS011;5727;42.600;23.028;2023-07-31T05:23:49;18.97;;;16.53;;
11344;SDS011;5727;42.600;23.028;2023-07-31T05:26:17;18.77;;;16.77;;
11344;SDS011;5727;42.600;23.028;2023-07-31T05:28:44;17.93;;;15.63;;
11344;SDS011;5727;42.600;23.028;2023-07-31T05:31:10;19.60;;;17.20;;
11344;SDS011;5727;42.600;23.028;2023-07-31T05:33:37;18.13;;;16.20;;
11344;SDS011;5727;42.600;23.028;2023-07-31T05:36:04;18.37;;;16.37;;
11344;SDS011;5727;42.600;23.028;2023-07-31T05:38:31;19.63;;;17.10;;
11344;SDS011;5727;42.600;23.028;2023-07-31T05:40:57;18.47;;;16.23;;
11344;SDS011;5727;42.600;23.028;2023-07-31T05:43:25;16.23;;;14.27;;
11344;SDS011;5727;42.600;23.028;2023-07-31T05:45:52;16.83;;;15.10;;
11344;SDS011;5727;42.600;23.028;2023-07-31T05:48:19;18.17;;;15.97;;
11344;SDS011;5727;42.600;23.028;2023-07-31T05:50:46;13.80;;;12.23;;
11344;SDS011;5727;42.600;23.028;2023-07-31T05:53:12;14.00;;;12.20;;
11344;SDS011;5727;42.600;23.028;2023-07-31T05:55:39;13.00;;;11.23;;
11344;SDS011;5727;42.600;23.028;2023-07-31T05:58:06;10.60;;;9.60;;
11344;SDS011;5727;42.600;23.028;2023-07-31T06:00:34;7.97;;;7.17;;
11344;SDS011;5727;42.600;23.028;2023-07-31T06:03:01;7.90;;;7.10;;
11344;SDS011;5727;42.600;23.028;2023-07-31T06:05:28;10.13;;;8.53;;
11344;SDS011;5727;42.600;23.028;2023-07-31T06:07:55;9.77;;;8.30;;
11344;SDS011;5727;42.600;23.028;2023-07-31T06:10:22;8.53;;;7.73;;
11344;SDS011;5727;42.600;23.028;2023-07-31T06:12:48;12.33;;;6.77;;
11344;SDS011;5727;42.600;23.028;2023-07-31T06:15:15;7.20;;;6.50;;
11344;SDS011;5727;42.600;23.028;2023-07-31T06:17:44;6.93;;;5.17;;
11344;SDS011;5727;42.600;23.028;2023-07-31T06:20:11;6.77;;;6.07;;
11344;SDS011;5727;42.600;23.028;2023-07-31T06:22:38;7.40;;;6.53;;
11344;SDS011;5727;42.600;23.028;2023-07-31T06:25:05;7.90;;;6.37;;
11344;SDS011;5727;42.600;23.028;2023-07-31T06:27:32;6.50;;;5.90;;
11344;SDS011;5727;42.600;23.028;2023-07-31T06:29:58;7.20;;;6.50;;
11344;SDS011;5727;42.600;23.028;2023-07-31T06:32:25;7.07;;;6.00;;
11344;SDS011;5727;42.600;23.028;2023-07-31T06:34:53;7.07;;;5.53;;
11344;SDS011;5727;42.600;23.028;2023-07-31T06:37:20;6.10;;;5.50;;
11344;SDS011;5727;42.600;23.028;2023-07-31T06:39:47;6.30;;;5.60;;
11344;SDS011;5727;42.600;23.028;2023-07-31T06:42:13;5.20;;;4.70;;
11344;SDS011;5727;42.600;23.028;2023-07-31T06:44:40;7.00;;;5.77;;
11344;SDS011;5727;42.600;23.028;2023-07-31T06:47:07;7.47;;;4.43;;
11344;SDS011;5727;42.600;23.028;2023-07-31T06:49:34;4.87;;;3.73;;
11344;SDS011;5727;42.600;23.028;2023-07-31T06:52:02;4.60;;;3.63;;
11344;SDS011;5727;42.600;23.028;2023-07-31T06:54:29;4.53;;;4.03;;
11344;SDS011;5727;42.600;23.028;2023-07-31T06:56:56;3.73;;;3.43;;
11344;SDS011;5727;42.600;23.028;2023-07-31T06:59:23;3.47;;;3.17;;
11344;SDS011;5727;42.600;23.028;2023-07-31T07:01:49;5.53;;;3.67;;
11344;SDS011;5727;42.600;23.028;2023-07-31T07:04:16;3.50;;;3.20;;
11344;SDS011;5727;42.600;23.028;2023-07-31T07:06:43;4.50;;;3.03;;
11344;SDS011;5727;42.600;23.028;2023-07-31T07:09:11;4.80;;;3.40;;
11344;SDS011;5727;42.600;23.028;2023-07-31T07:11:38;3.70;;;2.60;;
11344;SDS011;5727;42.600;23.028;2023-07-31T07:14:04;3.13;;;2.57;;
11344;SDS011;5727;42.600;23.028;2023-07-31T07:16:31;4.47;;;2.97;;
11344;SDS011;5727;42.600;23.028;2023-07-31T07:18:58;3.37;;;2.80;;
11344;SDS011;5727;42.600;23.028;2023-07-31T07:21:24;3.00;;;2.40;;
11344;SDS011;5727;42.600;23.028;2023-07-31T07:23:51;3.03;;;2.00;;
11344;SDS011;5727;42.600;23.028;2023-07-31T07:26:19;2.77;;;2.03;;
11344;SDS011;5727;42.600;23.028;2023-07-31T07:28:46;2.73;;;2.23;;
11344;SDS011;5727;42.600;23.028;2023-07-31T07:31:13;3.23;;;2.53;;
11344;SDS011;5727;42.600;23.028;2023-07-31T07:33:39;3.33;;;2.40;;
11344;SDS011;5727;42.600;23.028;2023-07-31T07:36:06;2.80;;;2.50;;
11344;SDS011;5727;42.600;23.028;2023-07-31T07:38:34;2.43;;;2.03;;
11344;SDS011;5727;42.600;23.028;2023-07-31T07:41:01;2.40;;;1.90;;
11344;SDS011;5727;42.600;23.028;2023-07-31T07:43:29;3.10;;;2.20;;
11344;SDS011;5727;42.600;23.028;2023-07-31T07:45:56;2.20;;;1.60;;
11344;SDS011;5727;42.600;23.028;2023-07-31T07:48:23;2.30;;;1.87;;
11344;SDS011;5727;42.600;23.028;2023-07-31T07:50:50;2.40;;;1.77;;
11344;SDS011;5727;42.600;23.028;2023-07-31T07:53:17;2.00;;;1.60;;
11344;SDS011;5727;42.600;23.028;2023-07-31T07:55:43;2.50;;;1.80;;
11344;SDS011;5727;42.600;23.028;2023-07-31T07:58:10;3.10;;;2.10;;
11344;SDS011;5727;42.600;23.028;2023-07-31T08:00:38;2.87;;;2.03;;
11344;SDS011;5727;42.600;23.028;2023-07-31T08:03:05;2.63;;;1.90;;
11344;SDS011;5727;42.600;23.028;2023-07-31T08:05:32;2.20;;;1.83;;
11344;SDS011;5727;42.600;23.028;2023-07-31T08:08:00;2.23;;;1.83;;
11344;SDS011;5727;42.600;23.028;2023-07-31T08:10:26;2.10;;;1.80;;
11344;SDS011;5727;42.600;23.028;2023-07-31T08:12:53;1.97;;;1.73;;
11344;SDS011;5727;42.600;23.028;2023-07-31T08:15:20;2.40;;;1.60;;
11344;SDS011;5727;42.600;23.028;2023-07-31T08:17:48;2.37;;;1.67;;
11344;SDS011;5727;42.600;23.028;2023-07-31T08:20:15;2.43;;;1.77;;
11344;SDS011;5727;42.600;23.028;2023-07-31T08:22:41;2.00;;;1.50;;
11344;SDS011;5727;42.600;23.028;2023-07-31T08:25:08;1.93;;;1.50;;
11344;SDS011;5727;42.600;23.028;2023-07-31T08:27:35;1.80;;;1.60;;
11344;SDS011;5727;42.600;23.028;2023-07-31T08:30:02;2.20;;;1.50;;
11344;SDS011;5727;42.600;23.028;2023-07-31T08:32:29;2.07;;;1.67;;
11344;SDS011;5727;42.600;23.028;2023-07-31T08:34:57;1.97;;;1.43;;
11344;SDS011;5727;42.600;23.028;2023-07-31T08:37:24;1.80;;;1.20;;
11344;SDS011;5727;42.600;23.028;2023-07-31T08:39:51;2.23;;;1.33;;
11344;SDS011;5727;42.600;23.028;2023-07-31T08:42:18;1.17;;;0.90;;
11344;SDS011;5727;42.600;23.028;2023-07-31T08:44:45;1.03;;;0.87;;
11344;SDS011;5727;42.600;23.028;2023-07-31T08:47:12;1.57;;;1.13;;
11344;SDS011;5727;42.600;23.028;2023-07-31T08:49:40;2.13;;;1.30;;
11344;SDS011;5727;42.600;23.028;2023-07-31T08:52:10;2.20;;;1.17;;
11344;SDS011;5727;42.600;23.028;2023-07-31T08:54:37;1.17;;;0.87;;
11344;SDS011;5727;42.600;23.028;2023-07-31T08:57:05;2.10;;;1.40;;
11344;SDS011;5727;42.600;23.028;2023-07-31T08:59:34;1.47;;;1.20;;
11344;SDS011;5727;42.600;23.028;2023-07-31T09:02:03;1.93;;;1.30;;
11344;SDS011;5727;42.600;23.028;2023-07-31T09:04:32;1.97;;;0.93;;
11344;SDS011;5727;42.600;23.028;2023-07-31T09:07:00;2.30;;;1.03;;
11344;SDS011;5727;42.600;23.028;2023-07-31T09:09:30;1.77;;;1.07;;
11344;SDS011;5727;42.600;23.028;2023-07-31T09:11:57;1.70;;;1.20;;
11344;SDS011;5727;42.600;23.028;2023-07-31T09:14:25;1.83;;;1.23;;
11344;SDS011;5727;42.600;23.028;2023-07-31T09:17:09;2.80;;;1.97;;
11344;SDS011;5727;42.600;23.028;2023-07-31T09:19:37;2.53;;;1.40;;
11344;SDS011;5727;42.600;23.028;2023-07-31T09:22:04;1.67;;;1.20;;
11344;SDS011;5727;42.600;23.028;2023-07-31T09:24:33;1.83;;;0.90;;
11344;SDS011;5727;42.600;23.028;2023-07-31T09:27:01;1.40;;;1.10;;
11344;SDS011;5727;42.600;23.028;2023-07-31T09:29:28;1.33;;;0.70;;
11344;SDS011;5727;42.600;23.028;2023-07-31T09:31:55;1.43;;;1.10;;
11344;SDS011;5727;42.600;23.028;2023-07-31T09:34:28;1.30;;;0.97;;
11344;SDS011;5727;42.600;23.028;2023-07-31T09:36:57;1.23;;;0.60;;
11344;SDS011;5727;42.600;23.028;2023-07-31T09:39:27;1.93;;;1.00;;
11344;SDS011;5727;42.600;23.028;2023-07-31T09:41:56;1.93;;;0.93;;
11344;SDS011;5727;42.600;23.028;2023-07-31T09:44:32;1.50;;;1.20;;
11344;SDS011;5727;42.600;23.028;2023-07-31T09:47:04;1.77;;;1.20;;
11344;SDS011;5727;42.600;23.028;2023-07-31T09:49:31;1.57;;;1.03;;
11344;SDS011;5727;42.600;23.028;2023-07-31T09:51:58;1.60;;;1.13;;
11344;SDS011;5727;42.600;23.028;2023-07-31T09:54:25;1.50;;;1.00;;
11344;SDS011;5727;42.600;23.028;2023-07-31T09:56:52;1.77;;;1.20;;
11344;SDS011;5727;42.600;23.028;2023-07-31T09:59:22;1.97;;;1.03;;
11344;SDS011;5727;42.600;23.028;2023-07-31T10:01:49;1.53;;;1.30;;
11344;SDS011;5727;42.600;23.028;2023-07-31T10:04:16;1.77;;;1.00;;
11344;SDS011;5727;42.600;23.028;2023-07-31T10:06:46;2.17;;;1.10;;
11344;SDS011;5727;42.600;23.028;2023-07-31T10:09:16;1.80;;;1.00;;
11344;SDS011;5727;42.600;23.028;2023-07-31T10:11:46;2.77;;;1.10;;
11344;SDS011;5727;42.600;23.028;2023-07-31T10:14:18;1.60;;;1.10;;
11344;SDS011;5727;42.600;23.028;2023-07-31T10:16:47;2.83;;;1.33;;
11344;SDS011;5727;42.600;23.028;2023-07-31T10:19:15;1.57;;;1.37;;
11344;SDS011;5727;42.600;23.028;2023-07-31T10:21:43;1.33;;;0.87;;
11344;SDS011;5727;42.600;23.028;2023-07-31T10:24:09;1.47;;;1.20;;
11344;SDS011;5727;42.600;23.028;2023-07-31T10:26:38;1.17;;;0.80;;
11344;SDS011;5727;42.600;23.028;2023-07-31T10:29:05;1.33;;;0.73;;
11344;SDS011;5727;42.600;23.028;2023-07-31T10:31:33;1.83;;;0.83;;
11344;SDS011;5727;42.600;23.028;2023-07-31T10:34:02;1.43;;;0.90;;
11344;SDS011;5727;42.600;23.028;2023-07-31T10:36:29;1.60;;;0.73;;
11344;SDS011;5727;42.600;23.028;2023-07-31T10:38:56;2.77;;;1.03;;
11344;SDS011;5727;42.600;23.028;2023-07-31T10:41:32;1.60;;;1.20;;
11344;SDS011;5727;42.600;23.028;2023-07-31T10:43:59;1.80;;;1.07;;
11344;SDS011;5727;42.600;23.028;2023-07-31T10:46:27;2.10;;;1.13;;
11344;SDS011;5727;42.600;23.028;2023-07-31T10:48:58;1.17;;;0.93;;
11344;SDS011;5727;42.600;23.028;2023-07-31T10:51:33;4.43;;;2.00;;
11344;SDS011;5727;42.600;23.028;2023-07-31T10:54:10;2.33;;;1.30;;
11344;SDS011;5727;42.600;23.028;2023-07-31T10:56:38;1.30;;;0.90;;
11344;SDS011;5727;42.600;23.028;2023-07-31T10:59:05;1.83;;;0.83;;
11344;SDS011;5727;42.600;23.028;2023-07-31T11:01:49;1.50;;;0.90;;
11344;SDS011;5727;42.600;23.028;2023-07-31T11:04:21;2.10;;;1.07;;
11344;SDS011;5727;42.600;23.028;2023-07-31T11:06:56;3.50;;;1.17;;
11344;SDS011;5727;42.600;23.028;2023-07-31T11:09:24;2.40;;;1.17;;
11344;SDS011;5727;42.600;23.028;2023-07-31T11:11:56;1.97;;;1.30;;
11344;SDS011;5727;42.600;23.028;2023-07-31T11:14:23;1.57;;;0.97;;
11344;SDS011;5727;42.600;23.028;2023-07-31T11:16:50;1.63;;;1.23;;
11344;SDS011;5727;42.600;23.028;2023-07-31T11:19:21;2.50;;;1.27;;
11344;SDS011;5727;42.600;23.028;2023-07-31T11:21:48;2.30;;;2.07;;
11344;SDS011;5727;42.600;23.028;2023-07-31T11:24:16;2.83;;;2.53;;
11344;SDS011;5727;42.600;23.028;2023-07-31T11:26:47;3.50;;;3.20;;
11344;SDS011;5727;42.600;23.028;2023-07-31T11:29:15;3.57;;;3.27;;
11344;SDS011;5727;42.600;23.028;2023-07-31T11:31:42;3.50;;;3.20;;
11344;SDS011;5727;42.600;23.028;2023-07-31T11:34:09;4.20;;;3.80;;
11344;SDS011;5727;42.600;23.028;2023-07-31T11:36:35;3.57;;;3.27;;
11344;SDS011;5727;42.600;23.028;2023-07-31T11:39:06;3.53;;;3.23;;
11344;SDS011;5727;42.600;23.028;2023-07-31T11:41:35;3.70;;;3.20;;
11344;SDS011;5727;42.600;23.028;2023-07-31T11:44:02;4.10;;;3.70;;
11344;SDS011;5727;42.600;23.028;2023-07-31T11:46:29;3.43;;;3.10;;
11344;SDS011;5727;42.600;23.028;2023-07-31T11:48:58;4.60;;;4.00;;
11344;SDS011;5727;42.600;23.028;2023-07-31T11:51:26;4.33;;;3.93;;
11344;SDS011;5727;42.600;23.028;2023-07-31T11:53:55;4.63;;;4.23;;
11344;SDS011;5727;42.600;23.028;2023-07-31T11:56:24;5.20;;;4.20;;
11344;SDS011;5727;42.600;23.028;2023-07-31T11:58:55;5.33;;;4.53;;
11344;SDS011;5727;42.600;23.028;2023-07-31T12:01:25;4.57;;;4.17;;
11344;SDS011;5727;42.600;23.028;2023-07-31T12:03:55;6.27;;;4.40;;
11344;SDS011;5727;42.600;23.028;2023-07-31T12:06:29;5.13;;;4.63;;
11344;SDS011;5727;42.600;23.028;2023-07-31T12:09:00;4.85;;;4.45;;
11344;SDS011;5727;42.600;23.028;2023-07-31T12:11:28;5.78;;;5.25;;
11344;SDS011;5727;42.600;23.028;2023-07-31T12:13:56;5.47;;;4.97;;
11344;SDS011;5727;42.600;23.028;2023-07-31T12:16:25;7.47;;;5.35;;
11344;SDS011;5727;42.600;23.028;2023-07-31T12:18:52;6.45;;;5.85;;
11344;SDS011;5727;42.600;23.028;2023-07-31T12:21:19;5.88;;;5.38;;
11344;SDS011;5727;42.600;23.028;2023-07-31T12:23:46;6.75;;;6.20;;
11344;SDS011;5727;42.600;23.028;2023-07-31T12:26:13;7.43;;;6.00;;
11344;SDS011;5727;42.600;23.028;2023-07-31T12:28:42;7.53;;;6.60;;
11344;SDS011;5727;42.600;23.028;2023-07-31T12:31:11;6.47;;;5.88;;
11344;SDS011;5727;42.600;23.028;2023-07-31T12:33:45;7.90;;;6.45;;
11344;SDS011;5727;42.600;23.028;2023-07-31T12:36:14;8.13;;;6.13;;
11344;SDS011;5727;42.600;23.028;2023-07-31T12:38:42;5.85;;;5.35;;
11344;SDS011;5727;42.600;23.028;2023-07-31T12:41:09;5.50;;;5.07;;
11344;SDS011;5727;42.600;23.028;2023-07-31T12:43:36;5.70;;;5.20;;
11344;SDS011;5727;42.600;23.028;2023-07-31T12:46:03;5.80;;;5.30;;
11344;SDS011;5727;42.600;23.028;2023-07-31T12:48:32;5.75;;;5.25;;
11344;SDS011;5727;42.600;23.028;2023-07-31T12:50:59;5.80;;;5.30;;
11344;SDS011;5727;42.600;23.028;2023-07-31T12:53:26;5.85;;;5.35;;
11344;SDS011;5727;42.600;23.028;2023-07-31T12:55:53;6.55;;;5.95;;
11344;SDS011;5727;42.600;23.028;2023-07-31T12:58:21;5.65;;;5.13;;
11344;SDS011;5727;42.600;23.028;2023-07-31T13:00:47;6.03;;;5.53;;
11344;SDS011;5727;42.600;23.028;2023-07-31T13:03:14;6.20;;;5.70;;
11344;SDS011;5727;42.600;23.028;2023-07-31T13:05:42;6.65;;;5.80;;
11344;SDS011;5727;42.600;23.028;2023-07-31T13:08:09;6.55;;;6.03;;
11344;SDS011;5727;42.600;23.028;2023-07-31T13:10:36;6.10;;;5.57;;
11344;SDS011;5727;42.600;23.028;2023-07-31T13:13:03;6.63;;;5.95;;
11344;SDS011;5727;42.600;23.028;2023-07-31T13:15:30;6.68;;;6.07;;
11344;SDS011;5727;42.600;23.028;2023-07-31T13:17:57;5.90;;;5.10;;
11344;SDS011;5727;42.600;23.028;2023-07-31T13:20:24;6.47;;;5.93;;
11344;SDS011;5727;42.600;23.028;2023-07-31T13:22:52;5.90;;;5.30;;
11344;SDS011;5727;42.600;23.028;2023-07-31T13:25:19;5.20;;;4.70;;
11344;SDS011;5727;42.600;23.028;2023-07-31T13:27:46;6.40;;;5.80;;
11344;SDS011;5727;42.600;23.028;2023-07-31T13:30:13;6.30;;;5.70;;
11344;SDS011;5727;42.600;23.028;2023-07-31T13:32:39;6.03;;;5.53;;
11344;SDS011;5727;42.600;23.028;2023-07-31T13:35:06;5.67;;;5.17;;
11344;SDS011;5727;42.600;23.028;2023-07-31T13:37:34;6.28;;;5.45;;
11344;SDS011;5727;42.600;23.028;2023-07-31T13:40:03;6.07;;;5.03;;
11344;SDS011;5727;42.600;23.028;2023-07-31T13:42:30;5.63;;;5.03;;
11344;SDS011;5727;42.600;23.028;2023-07-31T13:44:57;7.85;;;4.82;;
11344;SDS011;5727;42.600;23.028;2023-07-31T13:47:24;4.82;;;4.43;;
11344;SDS011;5727;42.600;23.028;2023-07-31T13:49:50;5.90;;;4.40;;
11344;SDS011;5727;42.600;23.028;2023-07-31T13:52:17;4.88;;;4.47;;
11344;SDS011;5727;42.600;23.028;2023-07-31T13:54:44;5.07;;;4.68;;
11344;SDS011;5727;42.600;23.028;2023-07-31T13:57:12;5.18;;;4.10;;
11344;SDS011;5727;42.600;23.028;2023-07-31T13:59:39;4.78;;;3.97;;
11344;SDS011;5727;42.600;23.028;2023-07-31T14:02:06;2.92;;;2.72;;
11344;SDS011;5727;42.600;23.028;2023-07-31T14:04:32;4.72;;;2.92;;
11344;SDS011;5727;42.600;23.028;2023-07-31T14:06:59;3.50;;;3.20;;
11344;SDS011;5727;42.600;23.028;2023-07-31T14:09:26;3.70;;;3.35;;
11344;SDS011;5727;42.600;23.028;2023-07-31T14:11:53;2.55;;;2.35;;
11344;SDS011;5727;42.600;23.028;2023-07-31T14:14:21;3.65;;;2.58;;
11344;SDS011;5727;42.600;23.028;2023-07-31T14:16:48;3.05;;;2.40;;
11344;SDS011;5727;42.600;23.028;2023-07-31T14:19:15;3.10;;;2.85;;
11344;SDS011;5727;42.600;23.028;2023-07-31T14:21:41;2.95;;;2.65;;
11344;SDS011;5727;42.600;23.028;2023-07-31T14:24:08;3.25;;;2.80;;
11344;SDS011;5727;42.600;23.028;2023-07-31T14:26:35;2.72;;;2.53;;
11344;SDS011;5727;42.600;23.028;2023-07-31T14:29:02;2.95;;;2.22;;
11344;SDS011;5727;42.600;23.028;2023-07-31T14:31:30;2.55;;;2.35;;
11344;SDS011;5727;42.600;23.028;2023-07-31T14:33:56;2.95;;;2.67;;
11344;SDS011;5727;42.600;23.028;2023-07-31T14:36:23;2.65;;;2.45;;
11344;SDS011;5727;42.600;23.028;2023-07-31T14:38:50;2.65;;;2.45;;
11344;SDS011;5727;42.600;23.028;2023-07-31T14:41:17;3.35;;;3.05;;